createdAt,value
2024-02-22T00:00:43.785Z,0.56
2024-02-22T00:01:43.885Z,0.55
2024-02-22T00:02:43.865Z,0.55
2024-02-22T00:03:43.932Z,0.56
2024-02-22T00:04:44.136Z,0.55
2024-02-22T00:05:44.119Z,0.56
2024-02-22T00:06:44.194Z,0.56
2024-02-22T00:07:44.150Z,0.57
2024-02-22T00:08:44.211Z,0.59
2024-02-22T00:09:44.224Z,0.58
2024-02-22T00:10:44.376Z,0.59
2024-02-22T00:11:44.396Z,0.60
2024-02-22T00:12:44.373Z,0.61
2024-02-22T00:13:44.490Z,0.61
2024-02-22T00:14:44.425Z,0.63
2024-02-22T00:15:44.481Z,0.63
2024-02-22T00:16:44.581Z,0.65
2024-02-22T00:17:44.585Z,0.66
2024-02-22T00:18:44.681Z,0.64
2024-02-22T00:19:44.630Z,0.66
2024-02-22T00:20:44.662Z,0.65
2024-02-22T00:21:44.706Z,0.64
2024-02-22T00:22:44.754Z,0.63
2024-02-22T00:23:44.800Z,0.62
2024-02-22T00:24:44.830Z,0.62
2024-02-22T00:25:44.932Z,0.60
2024-02-22T00:26:44.950Z,0.62
2024-02-22T00:27:44.953Z,0.60
2024-02-22T00:28:45.071Z,0.61
2024-02-22T00:29:45.071Z,0.59
2024-02-22T00:30:45.120Z,0.62
2024-02-22T00:31:45.197Z,0.62
2024-02-22T00:32:45.284Z,0.62
2024-02-22T00:33:45.303Z,0.61
2024-02-22T00:34:45.334Z,0.62
2024-02-22T00:35:45.335Z,0.60
2024-02-22T00:36:45.406Z,0.59
2024-02-22T00:37:45.496Z,0.59
2024-02-22T00:38:45.464Z,0.58
2024-02-22T00:39:45.508Z,0.57
2024-02-22T00:40:45.604Z,0.58
2024-02-22T00:41:45.624Z,0.59
2024-02-22T00:42:45.640Z,0.59
2024-02-22T00:43:45.704Z,0.59
2024-02-22T00:44:45.759Z,0.57
2024-02-22T00:45:45.775Z,0.56
2024-02-22T00:46:45.884Z,0.57
2024-02-22T00:47:45.946Z,0.57
2024-02-22T00:48:46.069Z,0.56
2024-02-22T00:49:46.068Z,0.56
2024-02-22T00:50:46.157Z,0.56
2024-02-22T00:51:46.109Z,0.57
2024-02-22T00:52:46.227Z,0.57
2024-02-22T00:53:46.216Z,0.55
2024-02-22T00:54:46.254Z,0.56
2024-02-22T00:55:46.387Z,0.55
2024-02-22T00:56:46.353Z,0.55
2024-02-22T00:57:46.417Z,0.55
2024-02-22T00:58:46.500Z,0.52
2024-02-22T00:59:46.627Z,0.54
2024-02-22T01:00:46.618Z,0.54
2024-02-22T01:01:46.731Z,0.53
2024-02-22T01:02:46.629Z,0.54
2024-02-22T01:03:46.751Z,0.53
2024-02-22T01:04:46.883Z,0.53
2024-02-22T01:05:46.865Z,0.55
2024-02-22T01:06:46.784Z,0.54
2024-02-22T01:07:46.932Z,0.55
2024-02-22T01:08:46.904Z,0.56
2024-02-22T01:09:46.971Z,0.56
2024-02-22T01:10:47.094Z,0.55
2024-02-22T01:11:47.165Z,0.55
2024-02-22T01:12:47.123Z,0.56
2024-02-22T01:13:47.143Z,0.57
2024-02-22T01:14:47.187Z,0.57
2024-02-22T01:15:47.241Z,0.57
2024-02-22T01:16:47.324Z,0.57
2024-02-22T01:17:47.368Z,0.58
2024-02-22T01:18:47.377Z,0.59
2024-02-22T01:19:47.388Z,0.60
2024-02-22T01:20:47.435Z,0.59
2024-02-22T01:21:47.518Z,0.59
2024-02-22T01:22:47.513Z,0.58
2024-02-22T01:23:47.566Z,0.56
2024-02-22T01:24:47.566Z,0.56
2024-02-22T01:25:47.697Z,0.56
2024-02-22T01:26:47.793Z,0.55
2024-02-22T01:27:47.762Z,0.56
2024-02-22T01:28:47.799Z,0.55
2024-02-22T01:29:47.909Z,0.57
2024-02-22T01:30:47.957Z,0.57
2024-02-22T01:31:47.936Z,0.57
2024-02-22T01:33:48.026Z,0.59
2024-02-22T01:34:48.096Z,0.59
2024-02-22T01:35:48.115Z,0.58
2024-02-22T01:36:48.149Z,0.57
2024-02-22T01:37:48.239Z,0.57
2024-02-22T01:38:48.257Z,0.55
2024-02-22T01:39:48.295Z,0.57
2024-02-22T01:40:48.423Z,0.58
2024-02-22T01:41:48.371Z,0.57
2024-02-22T01:42:48.445Z,0.56
2024-02-22T01:43:48.529Z,0.55
2024-02-22T01:44:48.535Z,0.55
2024-02-22T01:45:48.593Z,0.54
2024-02-22T01:46:48.699Z,0.54
2024-02-22T01:47:48.742Z,0.54
2024-02-22T01:48:48.839Z,0.55
2024-02-22T01:49:48.810Z,0.56
2024-02-22T01:50:48.794Z,0.58
2024-02-22T01:51:48.829Z,0.57
2024-02-22T01:52:48.906Z,0.57
2024-02-22T01:53:48.895Z,0.56
2024-02-22T01:54:49.018Z,0.55
2024-02-22T01:55:48.995Z,0.54
2024-02-22T01:56:49.086Z,0.53
2024-02-22T01:57:49.087Z,0.53
2024-02-22T01:58:49.264Z,0.53
2024-02-22T01:59:49.224Z,0.54
2024-02-22T02:00:49.312Z,0.52
2024-02-22T02:01:49.330Z,0.52
2024-02-22T02:02:49.481Z,0.53
2024-02-22T02:03:49.401Z,0.53
2024-02-22T02:04:49.492Z,0.52
2024-02-22T02:05:49.480Z,0.52
2024-02-22T02:06:49.541Z,0.51
2024-02-22T02:07:49.645Z,0.52
2024-02-22T02:08:49.537Z,0.52
2024-02-22T02:09:49.597Z,0.53
2024-02-22T02:10:49.681Z,0.53
2024-02-22T02:11:49.737Z,0.54
2024-02-22T02:12:49.701Z,0.52
2024-02-22T02:13:49.761Z,0.54
2024-02-22T02:14:49.761Z,0.53
2024-02-22T02:15:49.803Z,0.54
2024-02-22T02:16:49.870Z,0.53
2024-02-22T02:17:49.824Z,0.54
2024-02-22T02:18:49.909Z,0.55
2024-02-22T02:19:49.987Z,0.57
2024-02-22T02:20:49.946Z,0.55
2024-02-22T02:21:49.933Z,0.57
2024-02-22T02:22:49.993Z,0.56
2024-02-22T02:23:49.964Z,0.56
2024-02-22T02:24:49.981Z,0.57
2024-02-22T02:25:50.068Z,0.55
2024-02-22T02:26:50.082Z,0.56
2024-02-22T02:27:50.091Z,0.56
2024-02-22T02:28:50.104Z,0.55
2024-02-22T02:29:50.108Z,0.56
2024-02-22T02:30:50.064Z,0.55
2024-02-22T02:31:50.177Z,0.56
2024-02-22T02:32:50.196Z,0.56
2024-02-22T02:33:50.246Z,0.56
2024-02-22T02:34:50.170Z,0.55
2024-02-22T02:35:50.171Z,0.56
2024-02-22T02:36:50.238Z,0.56
2024-02-22T02:37:50.340Z,0.56
2024-02-22T02:38:50.269Z,0.56
2024-02-22T02:39:50.313Z,0.56
2024-02-22T02:40:50.391Z,0.57
2024-02-22T02:41:50.328Z,0.57
2024-02-22T02:42:50.392Z,0.58
2024-02-22T02:43:50.390Z,0.58
2024-02-22T02:44:50.408Z,0.59
2024-02-22T02:45:50.377Z,0.60
2024-02-22T02:46:50.457Z,0.61
2024-02-22T02:47:50.518Z,0.61
2024-02-22T02:48:50.567Z,0.63
2024-02-22T02:49:50.592Z,0.62
2024-02-22T02:50:50.549Z,0.63
2024-02-22T02:51:50.583Z,0.65
2024-02-22T02:52:50.679Z,0.64
2024-02-22T02:53:50.759Z,0.66
2024-02-22T02:54:50.750Z,0.65
2024-02-22T02:55:50.805Z,0.67
2024-02-22T02:56:50.863Z,0.68
2024-02-22T02:57:50.919Z,0.68
2024-02-22T02:58:50.969Z,0.68
2024-02-22T02:59:50.981Z,0.69
2024-02-22T03:00:51.050Z,0.67
2024-02-22T03:01:51.156Z,0.68
2024-02-22T03:02:51.140Z,0.72
2024-02-22T03:03:51.237Z,0.72
2024-02-22T03:04:51.347Z,0.71
2024-02-22T03:05:51.315Z,0.72
2024-02-22T03:06:51.304Z,0.71
2024-02-22T03:07:51.340Z,0.72
2024-02-22T03:08:51.388Z,0.74
2024-02-22T03:09:51.457Z,0.75
2024-02-22T03:10:51.590Z,0.75
2024-02-22T03:11:51.664Z,0.74
2024-02-22T03:12:51.626Z,0.76
2024-02-22T03:13:51.676Z,0.75
2024-02-22T03:14:51.721Z,0.75
2024-02-22T03:15:51.747Z,0.76
2024-02-22T03:16:51.801Z,0.77
2024-02-22T03:17:51.922Z,0.78
2024-02-22T03:18:51.929Z,0.77
2024-02-22T03:19:51.928Z,0.77
2024-02-22T03:20:51.983Z,0.79
2024-02-22T03:21:52.011Z,0.78
2024-02-22T03:22:52.063Z,0.78
2024-02-22T03:23:52.107Z,0.79
2024-02-22T03:24:52.106Z,0.79
2024-02-22T03:25:52.344Z,0.83
2024-02-22T03:26:52.239Z,0.81
2024-02-22T03:27:52.261Z,0.80
2024-02-22T03:28:52.354Z,0.82
2024-02-22T03:29:52.386Z,0.83
2024-02-22T03:30:52.373Z,0.82
2024-02-22T03:31:52.482Z,0.79
2024-02-22T03:32:52.520Z,0.83
2024-02-22T03:33:52.578Z,0.85
2024-02-22T03:34:52.628Z,0.85
2024-02-22T03:35:52.603Z,0.84
2024-02-22T03:36:52.648Z,0.85
2024-02-22T03:37:52.737Z,0.85
2024-02-22T03:38:52.720Z,0.87
2024-02-22T03:39:52.815Z,0.84
2024-02-22T03:40:52.896Z,0.86
2024-02-22T03:41:52.861Z,0.85
2024-02-22T03:42:52.933Z,0.86
2024-02-22T03:43:53.015Z,0.86
2024-02-22T03:44:53.052Z,0.86
2024-02-22T03:45:53.111Z,0.87
2024-02-22T03:46:53.205Z,0.87
2024-02-22T03:47:53.199Z,0.85
2024-02-22T03:48:53.260Z,0.87
2024-02-22T03:49:53.253Z,0.87
2024-02-22T03:50:53.289Z,0.88
2024-02-22T03:51:53.336Z,0.87
2024-02-22T03:52:53.370Z,0.90
2024-02-22T03:53:53.364Z,0.90
2024-02-22T03:54:53.390Z,0.89
2024-02-22T03:55:53.474Z,0.88
2024-02-22T03:56:53.470Z,0.86
2024-02-22T03:57:53.554Z,0.89
2024-02-22T03:58:53.593Z,0.89
2024-02-22T03:59:53.565Z,0.90
2024-02-22T04:00:53.677Z,0.90
2024-02-22T04:01:53.706Z,0.89
2024-02-22T04:02:53.694Z,0.88
2024-02-22T04:03:53.791Z,0.86
2024-02-22T04:04:53.842Z,0.79
2024-02-22T04:05:53.904Z,0.76
2024-02-22T04:06:53.949Z,0.71
2024-02-22T04:07:54.000Z,0.67
2024-02-22T04:08:54.030Z,0.61
2024-02-22T04:09:54.043Z,0.58
2024-02-22T04:10:54.136Z,0.58
2024-02-22T04:11:54.227Z,0.57
2024-02-22T04:12:54.228Z,0.58
2024-02-22T04:13:54.313Z,0.59
2024-02-22T04:14:54.317Z,0.57
2024-02-22T04:15:54.329Z,0.55
2024-02-22T04:16:54.473Z,0.53
2024-02-22T04:17:54.494Z,0.53
2024-02-22T04:18:54.493Z,0.53
2024-02-22T04:19:54.519Z,0.54
2024-02-22T04:20:54.476Z,0.55
2024-02-22T04:21:54.479Z,0.56
2024-02-22T04:22:54.617Z,0.58
2024-02-22T04:23:54.613Z,0.58
2024-02-22T04:24:54.667Z,0.61
2024-02-22T04:25:54.763Z,0.61
2024-02-22T04:26:54.767Z,0.63
2024-02-22T04:27:54.856Z,0.63
2024-02-22T04:28:54.851Z,0.61
2024-02-22T04:29:54.895Z,0.61
2024-02-22T04:30:54.961Z,0.63
2024-02-22T04:31:55.058Z,0.61
2024-02-22T04:32:55.126Z,0.62
2024-02-22T04:33:55.127Z,0.60
2024-02-22T04:34:55.248Z,0.61
2024-02-22T04:35:55.305Z,0.63
2024-02-22T04:36:55.238Z,0.65
2024-02-22T04:37:55.332Z,0.66
2024-02-22T04:38:55.385Z,0.66
2024-02-22T04:39:55.370Z,0.64
2024-02-22T04:40:55.488Z,0.64
2024-02-22T04:41:55.491Z,0.63
2024-02-22T04:42:55.499Z,0.66
2024-02-22T04:43:55.580Z,0.66
2024-02-22T04:44:55.605Z,0.67
2024-02-22T04:45:55.719Z,0.70
2024-02-22T04:46:55.791Z,0.68
2024-02-22T04:47:55.735Z,0.70
2024-02-22T04:48:55.825Z,0.70
2024-02-22T04:49:55.894Z,0.72
2024-02-22T04:50:55.912Z,0.72
2024-02-22T04:51:55.976Z,0.72
2024-02-22T04:52:56.052Z,0.71
2024-02-22T04:53:56.069Z,0.72
2024-02-22T04:55:03.871Z,0.50
2024-02-22T04:56:03.893Z,0.50
2024-02-22T04:57:03.834Z,0.50
2024-02-22T04:58:03.972Z,0.50
2024-02-22T04:59:03.918Z,0.50
2024-02-22T05:00:03.860Z,0.51
2024-02-22T05:01:03.960Z,0.52
2024-02-22T05:02:03.891Z,0.51
2024-02-22T05:03:03.886Z,0.51
2024-02-22T05:04:03.972Z,0.51
2024-02-22T05:05:03.924Z,0.53
2024-02-22T05:06:03.927Z,0.52
2024-02-22T05:07:03.893Z,0.54
2024-02-22T05:08:03.973Z,0.54
2024-02-22T05:09:03.941Z,0.54
2024-02-22T05:10:03.875Z,0.53
2024-02-22T05:11:03.977Z,0.54
2024-02-22T05:12:03.942Z,0.52
2024-02-22T05:13:03.923Z,0.51
2024-02-22T05:14:03.921Z,0.51
2024-02-22T05:15:03.882Z,0.50
2024-02-22T05:16:03.894Z,0.51
2024-02-22T05:17:03.966Z,0.51
2024-02-22T05:18:04.031Z,0.50
2024-02-22T05:19:03.959Z,0.51
2024-02-22T05:20:03.934Z,0.51
2024-02-22T05:21:03.917Z,0.51
2024-02-22T05:22:03.918Z,0.51
2024-02-22T05:23:03.944Z,0.52
2024-02-22T05:24:03.909Z,0.52
2024-02-22T05:25:03.900Z,0.51
2024-02-22T05:26:03.971Z,0.51
2024-02-22T05:27:03.940Z,0.52
2024-02-22T05:28:03.923Z,0.51
2024-02-22T05:29:03.923Z,0.50
2024-02-22T05:30:03.910Z,0.50
2024-02-22T05:31:03.916Z,0.52
2024-02-22T05:32:03.979Z,0.51
2024-02-22T05:33:03.993Z,0.54
2024-02-22T05:34:03.934Z,0.52
2024-02-22T05:35:04.022Z,0.52
2024-02-22T05:36:03.920Z,0.50
2024-02-22T05:37:03.930Z,0.51
2024-02-22T05:38:03.979Z,0.50
2024-02-22T05:39:03.938Z,0.50
2024-02-22T05:40:03.931Z,0.50
2024-02-22T05:41:03.997Z,0.50
2024-02-22T05:42:03.940Z,0.53
2024-02-22T05:43:03.923Z,0.55
2024-02-22T05:44:03.943Z,0.55
2024-02-22T05:45:03.930Z,0.56
2024-02-22T05:46:03.964Z,0.57
2024-02-22T05:47:03.956Z,0.55
2024-02-22T05:48:04.099Z,0.54
2024-02-22T05:49:04.272Z,0.53
2024-02-22T05:50:04.111Z,0.55
2024-02-22T05:51:04.136Z,0.57
2024-02-22T05:52:04.162Z,0.56
2024-02-22T05:53:04.658Z,0.59
2024-02-22T05:54:04.273Z,0.57
2024-02-22T05:55:04.294Z,0.58
2024-02-22T05:56:04.405Z,0.59
2024-02-22T05:57:04.427Z,0.58
2024-02-22T05:58:04.467Z,0.58
2024-02-22T05:59:04.609Z,0.57
2024-02-22T06:00:04.580Z,0.56
2024-02-22T06:01:27.166Z,0.53
2024-02-22T06:02:04.756Z,0.53
2024-02-22T06:03:07.927Z,0.54
2024-02-22T06:04:05.720Z,0.53
2024-02-22T06:05:04.705Z,0.54
2024-02-22T06:06:04.651Z,0.54
2024-02-22T06:07:04.674Z,0.54
2024-02-22T06:08:04.686Z,0.54
2024-02-22T06:09:04.643Z,0.58
2024-02-22T06:10:04.631Z,0.56
2024-02-22T06:11:04.717Z,0.59
2024-02-22T06:12:04.704Z,0.59
2024-02-22T06:13:04.643Z,0.59
2024-02-22T06:14:04.648Z,0.59
2024-02-22T06:15:04.703Z,0.60
2024-02-22T06:16:04.723Z,0.57
2024-02-22T06:17:04.822Z,0.56
2024-02-22T06:19:04.973Z,0.56
2024-02-22T06:20:04.938Z,0.56
2024-02-22T06:21:04.982Z,0.55
2024-02-22T06:22:05.014Z,0.54
2024-02-22T06:23:05.103Z,0.53
2024-02-22T06:24:05.117Z,0.53
2024-02-22T06:25:05.165Z,0.54
2024-02-22T06:26:05.353Z,0.55
2024-02-22T06:27:05.254Z,0.55
2024-02-22T06:28:05.327Z,0.56
2024-02-22T06:29:05.437Z,0.58
2024-02-22T06:30:05.390Z,0.58
2024-02-22T06:31:05.513Z,0.59
2024-02-22T06:32:05.536Z,0.58
2024-02-22T06:33:05.772Z,0.60
2024-02-22T06:34:06.099Z,0.58
2024-02-22T06:35:05.708Z,0.57
2024-02-22T06:36:05.723Z,0.54
2024-02-22T06:37:05.786Z,0.57
2024-02-22T06:38:05.928Z,0.56
2024-02-22T06:39:06.040Z,0.56
2024-02-22T06:40:05.908Z,0.59
2024-02-22T06:41:06.060Z,0.59
2024-02-22T06:42:06.119Z,0.58
2024-02-22T06:43:06.072Z,0.57
2024-02-22T06:44:06.605Z,0.57
2024-02-22T06:45:06.202Z,0.57
2024-02-22T06:46:28.774Z,0.61
2024-02-22T06:47:06.293Z,0.61
2024-02-22T06:48:06.345Z,0.62
2024-02-22T06:49:06.627Z,0.67
2024-02-22T06:50:06.413Z,0.77
2024-02-22T06:51:07.291Z,0.96
2024-02-22T06:52:06.309Z,1.07
2024-02-22T06:53:06.268Z,1.14
2024-02-22T06:54:06.579Z,1.21
2024-02-22T06:55:06.298Z,1.14
2024-02-22T06:56:06.285Z,1.14
2024-02-22T06:57:06.228Z,1.22
2024-02-22T06:58:06.305Z,1.25
2024-02-22T06:59:06.651Z,1.30
2024-02-22T07:00:06.346Z,1.37
2024-02-22T07:01:06.272Z,1.36
2024-02-22T07:02:06.332Z,1.35
2024-02-22T07:03:06.546Z,1.34
2024-02-22T07:04:06.649Z,1.36
2024-02-22T07:05:06.558Z,1.37
2024-02-22T07:06:06.392Z,1.38
2024-02-22T07:07:06.480Z,1.40
2024-02-22T07:08:06.584Z,1.40
2024-02-22T07:09:06.589Z,1.40
2024-02-22T07:10:06.582Z,1.44
2024-02-22T07:11:06.755Z,1.49
2024-02-22T07:12:06.817Z,1.46
2024-02-22T07:13:06.789Z,1.38
2024-02-22T07:14:07.272Z,1.40
2024-02-22T07:15:06.848Z,1.45
2024-02-22T07:16:06.914Z,1.46
2024-02-22T07:17:07.031Z,1.40
2024-02-22T07:18:07.128Z,1.38
2024-02-22T07:19:07.163Z,1.36
2024-02-22T07:20:07.322Z,1.34
2024-02-22T07:21:07.169Z,1.37
2024-02-22T07:22:07.165Z,1.41
2024-02-22T07:23:07.374Z,1.46
2024-02-22T07:24:07.277Z,1.49
2024-02-22T07:25:07.598Z,1.46
2024-02-22T07:26:07.420Z,1.52
2024-02-22T07:27:07.444Z,1.54
2024-02-22T07:28:07.513Z,1.55
2024-02-22T07:29:11.555Z,1.53
2024-02-22T07:30:08.571Z,1.53
2024-02-22T07:31:07.528Z,1.53
2024-02-22T07:32:07.584Z,1.51
2024-02-22T07:33:07.620Z,1.45
2024-02-22T07:34:07.590Z,1.45
2024-02-22T07:35:07.656Z,1.42
2024-02-22T07:36:10.492Z,1.42
2024-02-22T07:37:07.576Z,1.41
2024-02-22T07:38:07.622Z,1.35
2024-02-22T07:39:07.639Z,1.28
2024-02-22T07:40:07.618Z,1.25
2024-02-22T07:41:07.580Z,1.22
2024-02-22T07:42:07.620Z,1.22
2024-02-22T07:43:07.583Z,1.21
2024-02-22T07:44:10.954Z,1.24
2024-02-22T07:45:07.572Z,1.24
2024-02-22T07:46:07.590Z,1.24
2024-02-22T07:47:07.630Z,1.25
2024-02-22T07:48:07.658Z,1.25
2024-02-22T07:49:07.752Z,1.33
2024-02-22T07:50:07.672Z,1.33
2024-02-22T07:51:07.576Z,1.34
2024-02-22T07:52:07.593Z,1.29
2024-02-22T07:53:07.660Z,1.29
2024-02-22T07:54:07.603Z,1.27
2024-02-22T07:55:07.628Z,1.24
2024-02-22T07:56:07.718Z,1.24
2024-02-22T07:57:07.615Z,1.20
2024-02-22T07:58:07.662Z,1.18
2024-02-22T07:59:07.614Z,1.16
2024-02-22T08:00:07.632Z,1.13
2024-02-22T08:01:07.617Z,1.09
2024-02-22T08:02:07.650Z,1.13
2024-02-22T08:03:07.579Z,1.09
2024-02-22T08:04:07.598Z,1.05
2024-02-22T08:05:07.727Z,1.04
2024-02-22T08:06:07.632Z,1.02
2024-02-22T08:07:07.681Z,1.00
2024-02-22T08:08:07.658Z,0.99
2024-02-22T08:09:07.588Z,0.96
2024-02-22T08:10:07.607Z,0.91
2024-02-22T08:11:07.724Z,0.85
2024-02-22T08:12:07.728Z,0.77
2024-02-22T08:13:07.630Z,0.73
2024-02-22T08:14:07.650Z,0.71
2024-02-22T08:15:08.265Z,0.68
2024-02-22T08:16:07.633Z,0.69
2024-02-22T08:17:07.643Z,0.67
2024-02-22T08:18:07.658Z,0.66
2024-02-22T08:19:07.607Z,0.61
2024-02-22T08:20:07.765Z,0.63
2024-02-22T08:21:07.698Z,0.65
2024-02-22T08:22:07.632Z,0.64
2024-02-22T08:23:07.709Z,0.66
2024-02-22T08:24:07.661Z,0.65
2024-02-22T08:25:07.648Z,0.69
2024-02-22T08:26:07.693Z,0.70
2024-02-22T08:27:07.678Z,0.72
2024-02-22T08:28:08.226Z,0.72
2024-02-22T08:29:07.650Z,0.72
2024-02-22T08:30:08.103Z,0.70
2024-02-22T08:31:07.645Z,0.71
2024-02-22T08:32:08.722Z,0.69
2024-02-22T08:33:07.772Z,0.73
2024-02-22T08:34:07.888Z,0.74
2024-02-22T08:35:07.803Z,0.72
2024-02-22T08:36:07.779Z,0.69
2024-02-22T08:37:07.842Z,0.67
2024-02-22T08:38:07.890Z,0.65
2024-02-22T08:39:07.903Z,0.63
2024-02-22T08:40:19.908Z,0.66
2024-02-22T08:41:08.981Z,0.66
2024-02-22T08:42:07.925Z,0.66
2024-02-22T08:43:07.932Z,0.68
2024-02-22T08:44:07.997Z,0.71
2024-02-22T08:45:07.965Z,0.76
2024-02-22T08:46:07.958Z,0.79
2024-02-22T08:47:08.014Z,0.85
2024-02-22T08:48:08.113Z,0.86
2024-02-22T08:49:08.052Z,0.87
2024-02-22T08:50:08.218Z,0.84
2024-02-22T08:51:08.540Z,0.81
2024-02-22T08:52:08.099Z,0.76
2024-02-22T08:53:08.885Z,0.70
2024-02-22T08:54:08.046Z,0.63
2024-02-22T08:55:07.974Z,0.59
2024-02-22T08:56:08.035Z,0.56
2024-02-22T08:57:08.045Z,0.53
2024-02-22T08:58:08.034Z,0.52
2024-02-22T08:59:08.134Z,0.50
2024-02-22T09:00:08.086Z,0.51
2024-02-22T09:01:08.251Z,0.53
2024-02-22T09:02:08.312Z,0.54
2024-02-22T09:03:08.269Z,0.54
2024-02-22T09:04:08.277Z,0.54
2024-02-22T09:05:08.659Z,0.53
2024-02-22T09:06:08.467Z,0.53
2024-02-22T09:07:08.533Z,0.54
2024-02-22T09:08:08.564Z,0.54
2024-02-22T09:09:08.617Z,0.54
2024-02-22T09:10:08.510Z,0.54
2024-02-22T09:11:08.639Z,0.56
2024-02-22T09:12:08.673Z,0.57
2024-02-22T09:13:08.648Z,0.58
2024-02-22T09:14:08.648Z,0.58
2024-02-22T09:15:08.712Z,0.60
2024-02-22T09:16:08.720Z,0.63
2024-02-22T09:17:08.788Z,0.65
2024-02-22T09:18:08.867Z,0.67
2024-02-22T09:19:08.837Z,0.70
2024-02-22T09:20:08.916Z,0.73
2024-02-22T09:21:08.838Z,0.76
2024-02-22T09:22:08.831Z,0.78
2024-02-22T09:23:08.938Z,0.81
2024-02-22T09:24:08.946Z,0.83
2024-02-22T09:25:08.989Z,0.85
2024-02-22T09:26:09.096Z,0.88
2024-02-22T09:27:09.076Z,0.93
2024-02-22T09:28:09.633Z,0.95
2024-02-22T09:29:09.206Z,0.99
2024-02-22T09:30:09.217Z,1.00
2024-02-22T09:31:09.663Z,1.01
2024-02-22T09:32:09.350Z,0.96
2024-02-22T09:33:09.530Z,0.98
2024-02-22T09:34:09.668Z,0.98
2024-02-22T09:35:09.528Z,0.93
2024-02-22T09:36:09.816Z,0.93
2024-02-22T09:37:09.479Z,0.91
2024-02-22T09:38:09.626Z,0.90
2024-02-22T09:39:09.559Z,0.90
2024-02-22T09:40:09.597Z,0.87
2024-02-22T09:41:09.712Z,0.83
2024-02-22T09:42:09.647Z,0.81
2024-02-22T09:43:09.722Z,0.74
2024-02-22T09:44:09.839Z,0.72
2024-02-22T09:45:09.739Z,0.67
2024-02-22T09:46:09.808Z,0.63
2024-02-22T09:47:09.908Z,0.61
2024-02-22T09:48:09.929Z,0.58
2024-02-22T09:49:09.905Z,0.54
2024-02-22T09:50:09.944Z,0.50
2024-02-22T09:51:10.133Z,0.51
2024-02-22T09:52:09.954Z,0.50
2024-02-22T09:53:10.031Z,0.50
2024-02-22T09:54:10.008Z,0.50
2024-02-22T09:55:10.066Z,0.50
2024-02-22T09:56:10.133Z,0.49
2024-02-22T09:57:10.318Z,0.51
2024-02-22T09:58:10.178Z,0.50
2024-02-22T09:59:10.266Z,0.51
2024-02-22T10:00:10.295Z,0.51
2024-02-22T10:01:10.722Z,0.50
2024-02-22T10:02:10.394Z,0.52
2024-02-22T10:03:12.249Z,0.52
2024-02-22T10:04:10.477Z,0.51
2024-02-22T10:05:10.744Z,0.50
2024-02-22T10:06:10.713Z,0.50
2024-02-22T10:07:10.647Z,0.50
2024-02-22T10:08:10.734Z,0.50
2024-02-22T10:09:10.752Z,0.50
2024-02-22T10:10:10.776Z,0.51
2024-02-22T10:11:10.924Z,0.50
2024-02-22T10:12:11.133Z,0.50
2024-02-22T10:13:12.010Z,0.50
2024-02-22T10:14:11.076Z,0.50
2024-02-22T10:15:11.225Z,0.50
2024-02-22T10:16:11.032Z,0.50
2024-02-22T10:17:11.125Z,0.50
2024-02-22T10:18:11.204Z,0.53
2024-02-22T10:19:11.267Z,0.52
2024-02-22T10:20:11.807Z,0.50
2024-02-22T10:21:12.629Z,0.50
2024-02-22T10:22:11.306Z,0.53
2024-02-22T10:23:11.593Z,0.54
2024-02-22T10:24:11.418Z,0.51
2024-02-22T10:25:11.482Z,0.50
2024-02-22T10:26:11.541Z,0.52
2024-02-22T10:27:11.623Z,0.53
2024-02-22T10:28:11.660Z,0.50
2024-02-22T10:29:11.697Z,0.50
2024-02-22T10:30:11.766Z,0.50
2024-02-22T10:31:11.740Z,0.51
2024-02-22T10:32:11.796Z,0.50
2024-02-22T10:33:11.871Z,0.51
2024-02-22T10:34:11.903Z,0.50
2024-02-22T10:35:11.902Z,0.51
2024-02-22T10:36:12.207Z,0.52
2024-02-22T10:37:11.898Z,0.51
2024-02-22T10:38:11.954Z,0.50
2024-02-22T10:39:11.966Z,0.52
2024-02-22T10:40:12.007Z,0.52
2024-02-22T10:41:12.270Z,0.51
2024-02-22T10:42:12.148Z,0.54
2024-02-22T10:43:12.083Z,0.53
2024-02-22T10:44:12.163Z,0.52
2024-02-22T10:45:12.654Z,0.52
2024-02-22T10:46:12.157Z,0.52
2024-02-22T10:47:12.211Z,0.55
2024-02-22T10:48:12.271Z,0.51
2024-02-22T10:49:12.417Z,0.50
2024-02-22T10:50:12.246Z,0.51
2024-02-22T10:51:15.211Z,0.49
2024-02-22T10:52:12.708Z,0.50
2024-02-22T10:53:12.349Z,0.50
2024-02-22T10:54:12.306Z,0.52
2024-02-22T10:55:12.247Z,0.51
2024-02-22T10:56:12.327Z,0.52
2024-02-22T10:57:12.323Z,0.52
2024-02-22T10:58:12.293Z,0.52
2024-02-22T10:59:12.287Z,0.53
2024-02-22T11:00:13.296Z,0.53
2024-02-22T11:01:12.428Z,0.52
2024-02-22T11:02:12.380Z,0.51
2024-02-22T11:03:12.303Z,0.53
2024-02-22T11:04:12.360Z,0.51
2024-02-22T11:05:12.528Z,0.52
2024-02-22T11:06:12.253Z,0.51
2024-02-22T11:07:12.319Z,0.52
2024-02-22T11:08:12.341Z,0.51
2024-02-22T11:09:12.259Z,0.51
2024-02-22T11:10:12.321Z,0.52
2024-02-22T11:11:12.358Z,0.51
2024-02-22T11:12:12.715Z,0.51
2024-02-22T11:13:12.272Z,0.52
2024-02-22T11:14:12.329Z,0.51
2024-02-22T11:15:12.322Z,0.53
2024-02-22T11:16:12.312Z,0.49
2024-02-22T11:17:12.734Z,0.55
2024-02-22T11:18:12.433Z,0.55
2024-02-22T11:19:12.350Z,0.53
2024-02-22T11:20:12.408Z,0.53
2024-02-22T11:21:12.288Z,0.51
2024-02-22T11:22:12.310Z,0.58
2024-02-22T11:23:12.433Z,0.57
2024-02-22T11:24:12.420Z,0.60
2024-02-22T11:25:12.347Z,0.59
2024-02-22T11:26:12.341Z,0.54
2024-02-22T11:27:12.660Z,0.58
2024-02-22T11:28:12.379Z,0.61
2024-02-22T11:29:12.589Z,0.60
2024-02-22T11:30:12.410Z,0.61
2024-02-22T11:31:12.470Z,0.65
2024-02-22T11:32:12.551Z,0.62
2024-02-22T11:33:12.656Z,0.64
2024-02-22T11:34:12.665Z,0.63
2024-02-22T11:35:12.670Z,0.64
2024-02-22T11:36:12.638Z,0.66
2024-02-22T11:37:13.353Z,0.69
2024-02-22T11:38:12.954Z,0.66
2024-02-22T11:39:12.935Z,0.70
2024-02-22T11:40:12.986Z,0.72
2024-02-22T11:41:13.063Z,0.75
2024-02-22T11:42:13.247Z,0.82
2024-02-22T11:43:13.099Z,0.89
2024-02-22T11:44:13.311Z,0.94
2024-02-22T11:45:13.237Z,1.01
2024-02-22T11:46:13.372Z,1.12
2024-02-22T11:47:13.342Z,1.22
2024-02-22T11:48:13.409Z,1.33
2024-02-22T11:49:13.479Z,1.41
2024-02-22T11:50:13.495Z,1.45
2024-02-22T11:51:15.208Z,1.54
2024-02-22T11:52:13.526Z,1.53
2024-02-22T11:53:13.669Z,1.65
2024-02-22T11:54:13.649Z,1.83
2024-02-22T11:55:13.708Z,1.91
2024-02-22T11:56:13.756Z,2.05
2024-02-22T11:57:15.196Z,2.13
2024-02-22T11:58:13.781Z,2.36
2024-02-22T11:59:13.865Z,2.50
2024-02-22T12:00:13.815Z,2.57
2024-02-22T12:01:13.916Z,2.59
2024-02-22T12:02:14.900Z,2.62
2024-02-22T12:03:15.332Z,2.64
2024-02-22T12:04:13.939Z,2.60
2024-02-22T12:05:14.168Z,2.62
2024-02-22T12:06:14.132Z,2.80
2024-02-22T12:07:14.442Z,2.81
2024-02-22T12:08:14.106Z,2.96
2024-02-22T12:09:15.400Z,3.04
2024-02-22T12:10:14.116Z,3.20
2024-02-22T12:11:14.276Z,3.29
2024-02-22T12:12:14.278Z,3.24
2024-02-22T12:13:14.211Z,3.40
2024-02-22T12:14:14.237Z,3.57
2024-02-22T12:15:16.420Z,3.72
2024-02-22T12:16:14.293Z,3.71
2024-02-22T12:17:14.283Z,3.68
2024-02-22T12:18:14.286Z,3.73
2024-02-22T12:19:14.292Z,3.58
2024-02-22T12:20:14.472Z,3.54
2024-02-22T12:21:14.253Z,3.64
2024-02-22T12:22:14.790Z,3.69
2024-02-22T12:23:14.250Z,3.64
2024-02-22T12:24:14.244Z,3.85
2024-02-22T12:25:14.268Z,3.74
2024-02-22T12:26:14.247Z,3.81
2024-02-22T12:27:16.118Z,3.91
2024-02-22T12:28:14.223Z,3.92
2024-02-22T12:29:14.307Z,4.01
2024-02-22T12:30:14.249Z,4.38
2024-02-22T12:31:14.396Z,5.47
2024-02-22T12:32:14.789Z,7.44
2024-02-22T12:33:14.514Z,8.48
2024-02-22T12:34:18.355Z,9.85
2024-02-22T12:35:14.260Z,9.89
2024-02-22T12:36:14.232Z,10.07
2024-02-22T12:37:14.804Z,10.51
2024-02-22T12:38:14.288Z,11.21
2024-02-22T12:39:14.269Z,11.71
2024-02-22T12:40:14.281Z,11.89
2024-02-22T12:41:14.327Z,11.66
2024-02-22T12:42:14.281Z,11.70
2024-02-22T12:43:18.624Z,11.73
2024-02-22T12:44:15.292Z,11.74
2024-02-22T12:45:14.958Z,11.80
2024-02-22T12:46:14.345Z,11.85
2024-02-22T12:47:14.855Z,12.23
2024-02-22T12:48:14.330Z,12.42
2024-02-22T12:49:14.448Z,12.68
2024-02-22T12:50:14.273Z,12.09
2024-02-22T12:51:14.270Z,11.53
2024-02-22T12:52:14.263Z,10.99
2024-02-22T12:53:14.357Z,10.71
2024-02-22T12:54:14.293Z,10.40
2024-02-22T12:55:14.278Z,10.25
2024-02-22T12:56:14.306Z,10.07
2024-02-22T12:57:14.293Z,9.59
2024-02-22T12:58:14.291Z,9.49
2024-02-22T12:59:14.333Z,9.08
2024-02-22T13:00:14.313Z,9.04
2024-02-22T13:01:14.302Z,8.85
2024-02-22T13:02:14.308Z,8.63
2024-02-22T13:03:14.278Z,8.68
2024-02-22T13:04:14.319Z,8.65
2024-02-22T13:05:14.394Z,8.58
2024-02-22T13:06:14.476Z,8.17
2024-02-22T13:07:14.388Z,7.93
2024-02-22T13:08:20.011Z,8.00
2024-02-22T13:09:15.429Z,8.00
2024-02-22T13:10:14.439Z,7.71
2024-02-22T13:11:14.496Z,7.95
2024-02-22T13:12:14.461Z,7.62
2024-02-22T13:13:14.416Z,7.44
2024-02-22T13:14:14.437Z,7.43
2024-02-22T13:15:14.430Z,7.13
2024-02-22T13:16:14.547Z,6.77
2024-02-22T13:17:14.486Z,6.98
2024-02-22T13:18:14.546Z,6.79
2024-02-22T13:19:14.502Z,6.84
2024-02-22T13:20:14.548Z,6.66